sensor_id;sensor_type;location;lat;lon;timestamp;P1;durP1;ratioP1;P2;durP2;ratioP2
19651;SDS011;9974;52.146;14.668;2023-07-28T00:00:07;7.97;;;6.50;;
19651;SDS011;9974;52.146;14.668;2023-07-28T00:02:34;7.65;;;6.57;;
19651;SDS011;9974;52.146;14.668;2023-07-28T00:05:00;9.15;;;6.53;;
19651;SDS011;9974;52.146;14.668;2023-07-28T00:07:25;9.65;;;6.55;;
19651;SDS011;9974;52.146;14.668;2023-07-28T00:09:51;10.00;;;6.68;;
19651;SDS011;9974;52.146;14.668;2023-07-28T00:12:17;11.13;;;6.65;;
19651;SDS011;9974;52.146;14.668;2023-07-28T00:14:43;7.45;;;5.93;;
19651;SDS011;9974;52.146;14.668;2023-07-28T00:17:08;6.20;;;5.07;;
19651;SDS011;9974;52.146;14.668;2023-07-28T00:19:34;10.07;;;5.25;;
19651;SDS011;9974;52.146;14.668;2023-07-28T00:22:00;9.07;;;5.13;;
19651;SDS011;9974;52.146;14.668;2023-07-28T00:24:26;7.13;;;4.88;;
19651;SDS011;9974;52.146;14.668;2023-07-28T00:26:52;5.47;;;4.28;;
19651;SDS011;9974;52.146;14.668;2023-07-28T00:29:18;6.28;;;4.03;;
19651;SDS011;9974;52.146;14.668;2023-07-28T00:31:44;7.80;;;4.50;;
19651;SDS011;9974;52.146;14.668;2023-07-28T00:34:09;6.63;;;4.03;;
19651;SDS011;9974;52.146;14.668;2023-07-28T00:36:35;5.60;;;3.95;;
19651;SDS011;9974;52.146;14.668;2023-07-28T00:39:01;5.28;;;3.50;;
19651;SDS011;9974;52.146;14.668;2023-07-28T00:41:27;4.35;;;3.00;;
19651;SDS011;9974;52.146;14.668;2023-07-28T00:43:52;4.90;;;3.00;;
19651;SDS011;9974;52.146;14.668;2023-07-28T00:46:18;5.68;;;2.83;;
19651;SDS011;9974;52.146;14.668;2023-07-28T00:48:44;5.68;;;3.15;;
19651;SDS011;9974;52.146;14.668;2023-07-28T00:51:10;6.00;;;2.50;;
19651;SDS011;9974;52.146;14.668;2023-07-28T00:53:37;3.30;;;2.30;;
19651;SDS011;9974;52.146;14.668;2023-07-28T00:56:03;10.25;;;3.65;;
19651;SDS011;9974;52.146;14.668;2023-07-28T00:58:30;3.05;;;2.15;;
19651;SDS011;9974;52.146;14.668;2023-07-28T01:00:56;3.78;;;2.83;;
19651;SDS011;9974;52.146;14.668;2023-07-28T01:03:22;3.83;;;2.22;;
19651;SDS011;9974;52.146;14.668;2023-07-28T01:09:05;5.10;;;1.90;;
19651;SDS011;9974;52.146;14.668;2023-07-28T01:11:38;2.33;;;1.48;;
19651;SDS011;9974;52.146;14.668;2023-07-28T01:14:03;3.17;;;1.75;;
19651;SDS011;9974;52.146;14.668;2023-07-28T01:16:29;2.70;;;1.65;;
19651;SDS011;9974;52.146;14.668;2023-07-28T01:18:55;2.03;;;1.45;;
19651;SDS011;9974;52.146;14.668;2023-07-28T01:21:28;3.25;;;2.28;;
19651;SDS011;9974;52.146;14.668;2023-07-28T01:26:40;2.60;;;2.20;;
19651;SDS011;9974;52.146;14.668;2023-07-28T01:29:07;3.40;;;2.03;;
19651;SDS011;9974;52.146;14.668;2023-07-28T01:31:33;3.25;;;2.40;;
19651;SDS011;9974;52.146;14.668;2023-07-28T01:33:59;4.10;;;2.75;;
19651;SDS011;9974;52.146;14.668;2023-07-28T01:36:25;2.55;;;2.05;;
19651;SDS011;9974;52.146;14.668;2023-07-28T01:38:51;5.43;;;2.50;;
19651;SDS011;9974;52.146;14.668;2023-07-28T01:41:17;3.80;;;2.28;;
19651;SDS011;9974;52.146;14.668;2023-07-28T01:43:42;2.83;;;2.15;;
19651;SDS011;9974;52.146;14.668;2023-07-28T01:46:09;2.95;;;1.75;;
19651;SDS011;9974;52.146;14.668;2023-07-28T01:48:34;2.80;;;2.00;;
19651;SDS011;9974;52.146;14.668;2023-07-28T01:51:00;2.42;;;1.70;;
19651;SDS011;9974;52.146;14.668;2023-07-28T01:53:26;4.10;;;1.60;;
19651;SDS011;9974;52.146;14.668;2023-07-28T01:55:51;2.35;;;1.50;;
19651;SDS011;9974;52.146;14.668;2023-07-28T01:58:17;1.90;;;1.38;;
19651;SDS011;9974;52.146;14.668;2023-07-28T02:00:43;1.52;;;1.15;;
19651;SDS011;9974;52.146;14.668;2023-07-28T02:03:11;1.88;;;1.30;;
19651;SDS011;9974;52.146;14.668;2023-07-28T02:05:37;1.80;;;1.60;;
19651;SDS011;9974;52.146;14.668;2023-07-28T02:08:02;2.85;;;1.65;;
19651;SDS011;9974;52.146;14.668;2023-07-28T02:10:28;3.15;;;1.80;;
19651;SDS011;9974;52.146;14.668;2023-07-28T02:12:54;3.47;;;3.08;;
19651;SDS011;9974;52.146;14.668;2023-07-28T02:15:20;3.00;;;1.90;;
19651;SDS011;9974;52.146;14.668;2023-07-28T02:17:45;2.33;;;1.63;;
19651;SDS011;9974;52.146;14.668;2023-07-28T02:20:11;2.50;;;1.77;;
19651;SDS011;9974;52.146;14.668;2023-07-28T02:22:38;1.40;;;1.17;;
19651;SDS011;9974;52.146;14.668;2023-07-28T02:25:05;1.83;;;1.42;;
19651;SDS011;9974;52.146;14.668;2023-07-28T02:27:31;4.45;;;1.92;;
19651;SDS011;9974;52.146;14.668;2023-07-28T02:29:56;4.35;;;1.40;;
19651;SDS011;9974;52.146;14.668;2023-07-28T02:32:22;2.72;;;1.42;;
19651;SDS011;9974;52.146;14.668;2023-07-28T02:34:48;4.68;;;1.60;;
19651;SDS011;9974;52.146;14.668;2023-07-28T02:37:14;3.50;;;1.35;;
19651;SDS011;9974;52.146;14.668;2023-07-28T02:39:41;3.25;;;1.55;;
19651;SDS011;9974;52.146;14.668;2023-07-28T02:42:06;2.75;;;1.60;;
19651;SDS011;9974;52.146;14.668;2023-07-28T02:44:32;3.72;;;1.10;;
19651;SDS011;9974;52.146;14.668;2023-07-28T02:46:58;1.63;;;1.38;;
19651;SDS011;9974;52.146;14.668;2023-07-28T02:49:24;4.18;;;1.50;;
19651;SDS011;9974;52.146;14.668;2023-07-28T02:51:50;2.15;;;1.40;;
19651;SDS011;9974;52.146;14.668;2023-07-28T02:54:15;1.52;;;1.02;;
19651;SDS011;9974;52.146;14.668;2023-07-28T02:56:41;1.65;;;1.10;;
19651;SDS011;9974;52.146;14.668;2023-07-28T02:59:07;1.98;;;1.42;;
19651;SDS011;9974;52.146;14.668;2023-07-28T03:01:33;1.50;;;1.08;;
19651;SDS011;9974;52.146;14.668;2023-07-28T03:04:00;2.65;;;1.10;;
19651;SDS011;9974;52.146;14.668;2023-07-28T03:06:27;2.05;;;1.30;;
19651;SDS011;9974;52.146;14.668;2023-07-28T03:08:52;4.35;;;1.00;;
19651;SDS011;9974;52.146;14.668;2023-07-28T03:11:18;0.85;;;0.70;;
19651;SDS011;9974;52.146;14.668;2023-07-28T03:13:44;1.30;;;1.02;;
19651;SDS011;9974;52.146;14.668;2023-07-28T03:16:10;1.88;;;0.90;;
19651;SDS011;9974;52.146;14.668;2023-07-28T03:18:35;1.27;;;0.90;;
19651;SDS011;9974;52.146;14.668;2023-07-28T03:21:01;0.80;;;0.70;;
19651;SDS011;9974;52.146;14.668;2023-07-28T03:23:27;4.55;;;1.00;;
19651;SDS011;9974;52.146;14.668;2023-07-28T03:25:53;1.20;;;0.90;;
19651;SDS011;9974;52.146;14.668;2023-07-28T03:28:18;0.75;;;0.75;;
19651;SDS011;9974;52.146;14.668;2023-07-28T03:30:44;3.50;;;0.73;;
19651;SDS011;9974;52.146;14.668;2023-07-28T03:33:11;1.02;;;0.77;;
19651;SDS011;9974;52.146;14.668;2023-07-28T03:35:36;1.88;;;1.00;;
19651;SDS011;9974;52.146;14.668;2023-07-28T03:38:02;0.75;;;0.70;;
19651;SDS011;9974;52.146;14.668;2023-07-28T03:40:28;1.00;;;0.80;;
19651;SDS011;9974;52.146;14.668;2023-07-28T03:42:54;2.10;;;1.17;;
19651;SDS011;9974;52.146;14.668;2023-07-28T03:45:20;2.55;;;0.80;;
19651;SDS011;9974;52.146;14.668;2023-07-28T03:47:45;1.77;;;0.93;;
19651;SDS011;9974;52.146;14.668;2023-07-28T03:50:11;4.25;;;1.40;;
19651;SDS011;9974;52.146;14.668;2023-07-28T03:52:37;1.05;;;0.93;;
19651;SDS011;9974;52.146;14.668;2023-07-28T03:55:03;1.23;;;0.93;;
19651;SDS011;9974;52.146;14.668;2023-07-28T03:57:29;3.42;;;1.85;;
19651;SDS011;9974;52.146;14.668;2023-07-28T03:59:55;2.03;;;1.23;;
19651;SDS011;9974;52.146;14.668;2023-07-28T04:02:20;1.98;;;1.08;;
19651;SDS011;9974;52.146;14.668;2023-07-28T04:04:46;2.88;;;2.15;;
19651;SDS011;9974;52.146;14.668;2023-07-28T04:07:18;1.45;;;1.05;;
19651;SDS011;9974;52.146;14.668;2023-07-28T04:09:43;1.63;;;1.17;;
19651;SDS011;9974;52.146;14.668;2023-07-28T04:12:10;1.20;;;1.00;;
19651;SDS011;9974;52.146;14.668;2023-07-28T04:14:35;1.52;;;1.10;;
19651;SDS011;9974;52.146;14.668;2023-07-28T04:17:01;1.17;;;0.90;;
19651;SDS011;9974;52.146;14.668;2023-07-28T04:19:27;1.63;;;1.13;;
19651;SDS011;9974;52.146;14.668;2023-07-28T04:21:54;1.85;;;1.50;;
19651;SDS011;9974;52.146;14.668;2023-07-28T04:24:21;1.85;;;1.30;;
19651;SDS011;9974;52.146;14.668;2023-07-28T04:26:47;2.47;;;1.23;;
19651;SDS011;9974;52.146;14.668;2023-07-28T04:29:14;1.17;;;0.93;;
19651;SDS011;9974;52.146;14.668;2023-07-28T04:31:39;1.75;;;1.05;;
19651;SDS011;9974;52.146;14.668;2023-07-28T04:34:05;1.63;;;1.27;;
19651;SDS011;9974;52.146;14.668;2023-07-28T04:36:31;1.48;;;1.00;;
19651;SDS011;9974;52.146;14.668;2023-07-28T04:38:57;1.90;;;1.23;;
19651;SDS011;9974;52.146;14.668;2023-07-28T04:41:23;4.47;;;1.38;;
19651;SDS011;9974;52.146;14.668;2023-07-28T04:43:49;1.48;;;1.00;;
19651;SDS011;9974;52.146;14.668;2023-07-28T04:46:14;1.52;;;1.27;;
19651;SDS011;9974;52.146;14.668;2023-07-28T04:48:40;2.80;;;1.42;;
19651;SDS011;9974;52.146;14.668;2023-07-28T04:51:06;1.08;;;0.98;;
19651;SDS011;9974;52.146;14.668;2023-07-28T04:53:31;3.80;;;1.20;;
19651;SDS011;9974;52.146;14.668;2023-07-28T04:55:57;1.20;;;1.00;;
19651;SDS011;9974;52.146;14.668;2023-07-28T04:58:23;3.67;;;1.15;;
19651;SDS011;9974;52.146;14.668;2023-07-28T05:00:48;1.30;;;1.02;;
19651;SDS011;9974;52.146;14.668;2023-07-28T05:03:14;1.02;;;0.93;;
19651;SDS011;9974;52.146;14.668;2023-07-28T05:05:42;1.20;;;1.00;;
19651;SDS011;9974;52.146;14.668;2023-07-28T05:08:09;1.80;;;1.10;;
19651;SDS011;9974;52.146;14.668;2023-07-28T05:10:35;1.80;;;1.10;;
19651;SDS011;9974;52.146;14.668;2023-07-28T05:13:01;2.67;;;1.38;;
19651;SDS011;9974;52.146;14.668;2023-07-28T05:15:29;4.07;;;1.40;;
19651;SDS011;9974;52.146;14.668;2023-07-28T05:17:55;1.30;;;0.88;;
19651;SDS011;9974;52.146;14.668;2023-07-28T05:20:20;2.70;;;1.05;;
19651;SDS011;9974;52.146;14.668;2023-07-28T05:22:46;0.98;;;0.80;;
19651;SDS011;9974;52.146;14.668;2023-07-28T05:25:12;1.23;;;1.00;;
19651;SDS011;9974;52.146;14.668;2023-07-28T05:27:38;1.00;;;0.80;;
19651;SDS011;9974;52.146;14.668;2023-07-28T05:30:04;1.45;;;0.82;;
19651;SDS011;9974;52.146;14.668;2023-07-28T05:32:31;1.15;;;0.80;;
19651;SDS011;9974;52.146;14.668;2023-07-28T05:34:56;1.23;;;1.00;;
19651;SDS011;9974;52.146;14.668;2023-07-28T05:37:23;0.68;;;0.68;;
19651;SDS011;9974;52.146;14.668;2023-07-28T05:39:48;1.25;;;0.80;;
19651;SDS011;9974;52.146;14.668;2023-07-28T05:42:14;0.98;;;0.88;;
19651;SDS011;9974;52.146;14.668;2023-07-28T05:44:40;1.05;;;0.80;;
19651;SDS011;9974;52.146;14.668;2023-07-28T05:47:06;1.33;;;0.82;;
19651;SDS011;9974;52.146;14.668;2023-07-28T05:49:32;0.77;;;0.75;;
19651;SDS011;9974;52.146;14.668;2023-07-28T05:51:57;1.48;;;0.77;;
19651;SDS011;9974;52.146;14.668;2023-07-28T05:54:23;1.48;;;1.08;;
19651;SDS011;9974;52.146;14.668;2023-07-28T05:56:49;1.60;;;1.10;;
19651;SDS011;9974;52.146;14.668;2023-07-28T05:59:15;1.63;;;1.08;;
19651;SDS011;9974;52.146;14.668;2023-07-28T06:01:40;1.40;;;1.02;;
19651;SDS011;9974;52.146;14.668;2023-07-28T06:04:06;1.00;;;0.90;;
19651;SDS011;9974;52.146;14.668;2023-07-28T06:06:32;1.42;;;1.00;;
19651;SDS011;9974;52.146;14.668;2023-07-28T06:08:57;1.85;;;0.95;;
19651;SDS011;9974;52.146;14.668;2023-07-28T06:11:23;1.05;;;0.90;;
19651;SDS011;9974;52.146;14.668;2023-07-28T06:13:49;3.03;;;2.28;;
19651;SDS011;9974;52.146;14.668;2023-07-28T06:16:15;1.10;;;0.90;;
19651;SDS011;9974;52.146;14.668;2023-07-28T06:18:41;1.08;;;0.80;;
19651;SDS011;9974;52.146;14.668;2023-07-28T06:21:06;3.05;;;1.08;;
19651;SDS011;9974;52.146;14.668;2023-07-28T06:23:32;1.50;;;1.05;;
19651;SDS011;9974;52.146;14.668;2023-07-28T06:25:58;2.75;;;1.25;;
19651;SDS011;9974;52.146;14.668;2023-07-28T06:28:24;1.73;;;1.17;;
19651;SDS011;9974;52.146;14.668;2023-07-28T06:30:56;4.75;;;1.10;;
19651;SDS011;9974;52.146;14.668;2023-07-28T06:33:23;1.58;;;1.00;;
19651;SDS011;9974;52.146;14.668;2023-07-28T06:35:50;1.17;;;0.82;;
19651;SDS011;9974;52.146;14.668;2023-07-28T06:38:17;1.92;;;1.15;;
19651;SDS011;9974;52.146;14.668;2023-07-28T06:40:42;1.10;;;1.00;;
19651;SDS011;9974;52.146;14.668;2023-07-28T06:43:08;1.10;;;0.90;;
19651;SDS011;9974;52.146;14.668;2023-07-28T06:45:34;1.48;;;1.35;;
19651;SDS011;9974;52.146;14.668;2023-07-28T06:47:59;2.10;;;0.80;;
19651;SDS011;9974;52.146;14.668;2023-07-28T06:50:25;1.35;;;1.08;;
19651;SDS011;9974;52.146;14.668;2023-07-28T06:52:51;1.48;;;1.10;;
19651;SDS011;9974;52.146;14.668;2023-07-28T06:55:17;0.98;;;0.80;;
19651;SDS011;9974;52.146;14.668;2023-07-28T06:57:43;1.70;;;1.10;;
19651;SDS011;9974;52.146;14.668;2023-07-28T07:00:09;1.55;;;1.00;;
19651;SDS011;9974;52.146;14.668;2023-07-28T07:02:35;1.42;;;0.85;;
19651;SDS011;9974;52.146;14.668;2023-07-28T07:05:01;2.97;;;1.15;;
19651;SDS011;9974;52.146;14.668;2023-07-28T07:07:27;2.78;;;1.17;;
19651;SDS011;9974;52.146;14.668;2023-07-28T07:09:53;0.88;;;0.82;;
19651;SDS011;9974;52.146;14.668;2023-07-28T07:12:19;2.55;;;1.25;;
19651;SDS011;9974;52.146;14.668;2023-07-28T07:14:46;1.27;;;0.90;;
19651;SDS011;9974;52.146;14.668;2023-07-28T07:17:12;1.45;;;1.02;;
19651;SDS011;9974;52.146;14.668;2023-07-28T07:19:38;1.30;;;0.95;;
19651;SDS011;9974;52.146;14.668;2023-07-28T07:22:04;5.88;;;1.13;;
19651;SDS011;9974;52.146;14.668;2023-07-28T07:24:30;4.68;;;0.88;;
19651;SDS011;9974;52.146;14.668;2023-07-28T07:26:56;4.22;;;2.45;;
19651;SDS011;9974;52.146;14.668;2023-07-28T07:29:22;0.80;;;0.80;;
19651;SDS011;9974;52.146;14.668;2023-07-28T07:31:48;1.25;;;1.02;;
19651;SDS011;9974;52.146;14.668;2023-07-28T07:34:14;1.27;;;1.00;;
19651;SDS011;9974;52.146;14.668;2023-07-28T07:36:40;1.88;;;1.10;;
19651;SDS011;9974;52.146;14.668;2023-07-28T07:39:06;1.17;;;1.05;;
19651;SDS011;9974;52.146;14.668;2023-07-28T07:41:32;1.77;;;0.75;;
19651;SDS011;9974;52.146;14.668;2023-07-28T07:43:58;1.02;;;0.70;;
19651;SDS011;9974;52.146;14.668;2023-07-28T07:46:24;3.58;;;1.02;;
19651;SDS011;9974;52.146;14.668;2023-07-28T07:48:50;1.73;;;1.05;;
19651;SDS011;9974;52.146;14.668;2023-07-28T07:51:16;1.50;;;0.98;;
19651;SDS011;9974;52.146;14.668;2023-07-28T07:53:42;1.65;;;0.70;;
19651;SDS011;9974;52.146;14.668;2023-07-28T07:56:07;0.95;;;0.82;;
19651;SDS011;9974;52.146;14.668;2023-07-28T07:58:34;0.80;;;0.73;;
19651;SDS011;9974;52.146;14.668;2023-07-28T08:01:00;1.00;;;0.90;;
19651;SDS011;9974;52.146;14.668;2023-07-28T08:03:25;0.52;;;0.52;;
19651;SDS011;9974;52.146;14.668;2023-07-28T08:05:52;1.15;;;0.80;;
19651;SDS011;9974;52.146;14.668;2023-07-28T08:08:18;1.77;;;1.10;;
19651;SDS011;9974;52.146;14.668;2023-07-28T08:10:44;1.08;;;0.73;;
19651;SDS011;9974;52.146;14.668;2023-07-28T08:13:14;1.20;;;0.93;;
19651;SDS011;9974;52.146;14.668;2023-07-28T08:15:40;3.72;;;1.25;;
19651;SDS011;9974;52.146;14.668;2023-07-28T08:18:08;1.55;;;1.10;;
19651;SDS011;9974;52.146;14.668;2023-07-28T08:20:34;1.50;;;1.35;;
19651;SDS011;9974;52.146;14.668;2023-07-28T08:23:00;4.45;;;1.55;;
19651;SDS011;9974;52.146;14.668;2023-07-28T08:25:25;2.53;;;1.48;;
19651;SDS011;9974;52.146;14.668;2023-07-28T08:27:51;1.92;;;1.40;;
19651;SDS011;9974;52.146;14.668;2023-07-28T08:30:17;2.15;;;1.27;;
19651;SDS011;9974;52.146;14.668;2023-07-28T08:32:42;1.50;;;1.23;;
19651;SDS011;9974;52.146;14.668;2023-07-28T08:35:09;1.27;;;0.95;;
19651;SDS011;9974;52.146;14.668;2023-07-28T08:37:35;1.02;;;0.90;;
19651;SDS011;9974;52.146;14.668;2023-07-28T08:40:01;1.80;;;1.02;;
19651;SDS011;9974;52.146;14.668;2023-07-28T08:42:29;1.10;;;0.90;;
19651;SDS011;9974;52.146;14.668;2023-07-28T08:44:56;1.17;;;1.00;;
19651;SDS011;9974;52.146;14.668;2023-07-28T08:47:22;2.03;;;1.10;;
19651;SDS011;9974;52.146;14.668;2023-07-28T08:49:48;3.00;;;0.93;;
19651;SDS011;9974;52.146;14.668;2023-07-28T08:52:17;11.32;;;2.08;;
19651;SDS011;9974;52.146;14.668;2023-07-28T08:54:43;0.82;;;0.73;;
19651;SDS011;9974;52.146;14.668;2023-07-28T08:57:09;1.13;;;0.75;;
19651;SDS011;9974;52.146;14.668;2023-07-28T08:59:35;0.63;;;0.57;;
19651;SDS011;9974;52.146;14.668;2023-07-28T09:02:03;1.13;;;0.90;;
19651;SDS011;9974;52.146;14.668;2023-07-28T09:04:31;1.20;;;0.80;;
19651;SDS011;9974;52.146;14.668;2023-07-28T09:06:57;3.00;;;0.70;;
19651;SDS011;9974;52.146;14.668;2023-07-28T09:09:23;2.10;;;1.17;;
19651;SDS011;9974;52.146;14.668;2023-07-28T09:11:49;0.82;;;0.80;;
19651;SDS011;9974;52.146;14.668;2023-07-28T09:14:17;1.95;;;1.02;;
19651;SDS011;9974;52.146;14.668;2023-07-28T09:16:45;1.98;;;0.93;;
19651;SDS011;9974;52.146;14.668;2023-07-28T09:19:11;1.42;;;0.80;;
19651;SDS011;9974;52.146;14.668;2023-07-28T09:21:38;1.30;;;0.63;;
19651;SDS011;9974;52.146;14.668;2023-07-28T09:24:08;2.50;;;0.85;;
19651;SDS011;9974;52.146;14.668;2023-07-28T09:26:45;1.45;;;0.82;;
19651;SDS011;9974;52.146;14.668;2023-07-28T09:29:15;3.97;;;1.00;;
19651;SDS011;9974;52.146;14.668;2023-07-28T09:31:48;3.55;;;0.90;;
19651;SDS011;9974;52.146;14.668;2023-07-28T09:34:27;1.15;;;0.80;;
19651;SDS011;9974;52.146;14.668;2023-07-28T09:36:54;0.98;;;0.88;;
19651;SDS011;9974;52.146;14.668;2023-07-28T09:39:20;1.02;;;0.63;;
19651;SDS011;9974;52.146;14.668;2023-07-28T09:41:47;0.55;;;0.55;;
19651;SDS011;9974;52.146;14.668;2023-07-28T09:44:13;1.65;;;0.90;;
19651;SDS011;9974;52.146;14.668;2023-07-28T09:46:50;1.20;;;0.85;;
19651;SDS011;9974;52.146;14.668;2023-07-28T09:49:41;4.55;;;0.60;;
19651;SDS011;9974;52.146;14.668;2023-07-28T09:52:13;0.50;;;0.50;;
19651;SDS011;9974;52.146;14.668;2023-07-28T09:54:40;0.52;;;0.50;;
19651;SDS011;9974;52.146;14.668;2023-07-28T09:57:08;1.45;;;0.52;;
19651;SDS011;9974;52.146;14.668;2023-07-28T09:59:38;1.67;;;0.90;;
19651;SDS011;9974;52.146;14.668;2023-07-28T10:02:06;0.95;;;0.77;;
19651;SDS011;9974;52.146;14.668;2023-07-28T10:04:33;0.90;;;0.85;;
19651;SDS011;9974;52.146;14.668;2023-07-28T10:06:59;0.82;;;0.60;;
19651;SDS011;9974;52.146;14.668;2023-07-28T10:09:26;0.60;;;0.60;;
19651;SDS011;9974;52.146;14.668;2023-07-28T10:11:55;0.95;;;0.85;;
19651;SDS011;9974;52.146;14.668;2023-07-28T10:14:25;2.60;;;0.68;;
19651;SDS011;9974;52.146;14.668;2023-07-28T10:16:59;0.68;;;0.50;;
19651;SDS011;9974;52.146;14.668;2023-07-28T10:19:27;1.45;;;0.43;;
19651;SDS011;9974;52.146;14.668;2023-07-28T10:22:02;1.02;;;0.47;;
19651;SDS011;9974;52.146;14.668;2023-07-28T10:24:51;0.50;;;0.50;;
19651;SDS011;9974;52.146;14.668;2023-07-28T10:27:36;0.80;;;0.60;;
19651;SDS011;9974;52.146;14.668;2023-07-28T10:30:04;1.23;;;0.88;;
19651;SDS011;9974;52.146;14.668;2023-07-28T10:32:41;0.52;;;0.45;;
19651;SDS011;9974;52.146;14.668;2023-07-28T10:35:21;0.95;;;0.50;;
19651;SDS011;9974;52.146;14.668;2023-07-28T10:37:50;0.45;;;0.45;;
19651;SDS011;9974;52.146;14.668;2023-07-28T10:42:49;0.35;;;0.28;;
19651;SDS011;9974;52.146;14.668;2023-07-28T10:45:16;0.65;;;0.47;;
19651;SDS011;9974;52.146;14.668;2023-07-28T10:47:42;0.80;;;0.57;;
19651;SDS011;9974;52.146;14.668;2023-07-28T10:50:09;0.80;;;0.55;;
19651;SDS011;9974;52.146;14.668;2023-07-28T10:55:11;0.90;;;0.50;;
19651;SDS011;9974;52.146;14.668;2023-07-28T10:57:40;0.68;;;0.50;;
19651;SDS011;9974;52.146;14.668;2023-07-28T11:00:08;1.30;;;0.50;;
19651;SDS011;9974;52.146;14.668;2023-07-28T11:02:37;0.50;;;0.50;;
19651;SDS011;9974;52.146;14.668;2023-07-28T11:05:09;0.77;;;0.60;;
19651;SDS011;9974;52.146;14.668;2023-07-28T11:07:43;0.75;;;0.50;;
19651;SDS011;9974;52.146;14.668;2023-07-28T11:10:12;0.70;;;0.50;;
19651;SDS011;9974;52.146;14.668;2023-07-28T11:12:40;0.60;;;0.60;;
19651;SDS011;9974;52.146;14.668;2023-07-28T11:15:10;0.85;;;0.63;;
19651;SDS011;9974;52.146;14.668;2023-07-28T11:17:38;2.08;;;1.15;;
19651;SDS011;9974;52.146;14.668;2023-07-28T11:20:14;0.73;;;0.55;;
19651;SDS011;9974;52.146;14.668;2023-07-28T11:22:58;1.38;;;0.70;;
19651;SDS011;9974;52.146;14.668;2023-07-28T11:25:29;1.77;;;1.25;;
19651;SDS011;9974;52.146;14.668;2023-07-28T11:27:56;3.38;;;0.85;;
19651;SDS011;9974;52.146;14.668;2023-07-28T11:30:22;1.45;;;0.77;;
19651;SDS011;9974;52.146;14.668;2023-07-28T11:32:50;1.05;;;0.80;;
19651;SDS011;9974;52.146;14.668;2023-07-28T11:35:19;0.68;;;0.68;;
19651;SDS011;9974;52.146;14.668;2023-07-28T11:37:48;0.73;;;0.65;;
19651;SDS011;9974;52.146;14.668;2023-07-28T11:40:16;0.80;;;0.60;;
19651;SDS011;9974;52.146;14.668;2023-07-28T11:42:45;1.17;;;0.70;;
19651;SDS011;9974;52.146;14.668;2023-07-28T11:45:19;1.00;;;0.75;;
19651;SDS011;9974;52.146;14.668;2023-07-28T11:50:26;1.20;;;0.60;;
19651;SDS011;9974;52.146;14.668;2023-07-28T11:52:54;0.93;;;0.60;;
19651;SDS011;9974;52.146;14.668;2023-07-28T11:55:24;0.60;;;0.60;;
19651;SDS011;9974;52.146;14.668;2023-07-28T11:57:51;0.57;;;0.50;;
19651;SDS011;9974;52.146;14.668;2023-07-28T12:00:18;0.70;;;0.68;;
19651;SDS011;9974;52.146;14.668;2023-07-28T12:02:51;0.93;;;0.70;;
19651;SDS011;9974;52.146;14.668;2023-07-28T12:05:36;0.82;;;0.47;;
19651;SDS011;9974;52.146;14.668;2023-07-28T12:08:03;1.13;;;0.70;;
19651;SDS011;9974;52.146;14.668;2023-07-28T12:10:29;0.85;;;0.70;;
19651;SDS011;9974;52.146;14.668;2023-07-28T12:12:56;0.50;;;0.50;;
19651;SDS011;9974;52.146;14.668;2023-07-28T12:15:26;1.02;;;0.47;;
19651;SDS011;9974;52.146;14.668;2023-07-28T12:20:37;1.17;;;0.80;;
19651;SDS011;9974;52.146;14.668;2023-07-28T12:23:13;4.57;;;0.50;;
19651;SDS011;9974;52.146;14.668;2023-07-28T12:25:41;0.70;;;0.50;;
19651;SDS011;9974;52.146;14.668;2023-07-28T12:28:07;3.95;;;0.70;;
19651;SDS011;9974;52.146;14.668;2023-07-28T12:30:33;0.40;;;0.40;;
19651;SDS011;9974;52.146;14.668;2023-07-28T12:32:59;2.13;;;0.65;;
19651;SDS011;9974;52.146;14.668;2023-07-28T12:35:25;0.40;;;0.30;;
19651;SDS011;9974;52.146;14.668;2023-07-28T12:37:56;1.27;;;0.80;;
19651;SDS011;9974;52.146;14.668;2023-07-28T12:40:24;0.95;;;0.80;;
19651;SDS011;9974;52.146;14.668;2023-07-28T12:42:51;1.60;;;0.98;;
19651;SDS011;9974;52.146;14.668;2023-07-28T12:45:17;1.27;;;0.93;;
19651;SDS011;9974;52.146;14.668;2023-07-28T12:47:43;0.90;;;0.60;;
19651;SDS011;9974;52.146;14.668;2023-07-28T12:50:09;1.02;;;0.60;;
19651;SDS011;9974;52.146;14.668;2023-07-28T12:52:36;1.27;;;0.80;;
19651;SDS011;9974;52.146;14.668;2023-07-28T12:55:02;1.20;;;0.75;;
19651;SDS011;9974;52.146;14.668;2023-07-28T12:57:29;0.45;;;0.45;;
19651;SDS011;9974;52.146;14.668;2023-07-28T12:59:54;0.57;;;0.50;;
19651;SDS011;9974;52.146;14.668;2023-07-28T13:02:20;0.77;;;0.50;;
19651;SDS011;9974;52.146;14.668;2023-07-28T13:04:46;0.68;;;0.65;;
19651;SDS011;9974;52.146;14.668;2023-07-28T13:07:12;0.50;;;0.50;;
19651;SDS011;9974;52.146;14.668;2023-07-28T13:09:38;0.60;;;0.60;;
19651;SDS011;9974;52.146;14.668;2023-07-28T13:12:04;5.38;;;1.00;;
19651;SDS011;9974;52.146;14.668;2023-07-28T13:14:30;1.35;;;1.02;;
19651;SDS011;9974;52.146;14.668;2023-07-28T13:16:55;0.52;;;0.50;;
19651;SDS011;9974;52.146;14.668;2023-07-28T13:19:21;0.93;;;0.80;;
19651;SDS011;9974;52.146;14.668;2023-07-28T13:21:47;3.33;;;0.40;;
19651;SDS011;9974;52.146;14.668;2023-07-28T13:24:13;0.70;;;0.50;;
19651;SDS011;9974;52.146;14.668;2023-07-28T13:26:38;1.17;;;0.30;;
19651;SDS011;9974;52.146;14.668;2023-07-28T13:29:04;0.85;;;0.28;;
19651;SDS011;9974;52.146;14.668;2023-07-28T13:31:32;1.10;;;0.73;;
19651;SDS011;9974;52.146;14.668;2023-07-28T13:33:58;2.33;;;0.55;;
19651;SDS011;9974;52.146;14.668;2023-07-28T13:36:23;0.50;;;0.30;;
19651;SDS011;9974;52.146;14.668;2023-07-28T13:38:49;0.40;;;0.40;;
19651;SDS011;9974;52.146;14.668;2023-07-28T13:41:14;0.75;;;0.40;;
19651;SDS011;9974;52.146;14.668;2023-07-28T13:43:41;1.92;;;0.88;;
19651;SDS011;9974;52.146;14.668;2023-07-28T13:46:07;0.75;;;0.50;;
19651;SDS011;9974;52.146;14.668;2023-07-28T13:48:33;0.60;;;0.38;;
19651;SDS011;9974;52.146;14.668;2023-07-28T13:51:01;2.95;;;0.98;;
19651;SDS011;9974;52.146;14.668;2023-07-28T13:53:27;3.88;;;0.73;;
19651;SDS011;9974;52.146;14.668;2023-07-28T13:55:53;2.72;;;0.82;;
19651;SDS011;9974;52.146;14.668;2023-07-28T13:58:20;2.05;;;1.13;;
19651;SDS011;9974;52.146;14.668;2023-07-28T14:00:45;4.40;;;1.05;;
19651;SDS011;9974;52.146;14.668;2023-07-28T14:03:11;1.45;;;1.00;;
19651;SDS011;9974;52.146;14.668;2023-07-28T14:05:37;1.52;;;0.98;;
19651;SDS011;9974;52.146;14.668;2023-07-28T14:08:03;1.52;;;1.00;;
19651;SDS011;9974;52.146;14.668;2023-07-28T14:10:29;1.92;;;1.33;;
19651;SDS011;9974;52.146;14.668;2023-07-28T14:12:57;1.98;;;1.20;;
19651;SDS011;9974;52.146;14.668;2023-07-28T14:15:23;3.38;;;1.58;;
19651;SDS011;9974;52.146;14.668;2023-07-28T14:17:49;1.20;;;0.95;;
19651;SDS011;9974;52.146;14.668;2023-07-28T14:20:15;1.67;;;1.00;;
19651;SDS011;9974;52.146;14.668;2023-07-28T14:22:41;2.00;;;0.95;;
19651;SDS011;9974;52.146;14.668;2023-07-28T14:25:07;1.80;;;1.00;;
19651;SDS011;9974;52.146;14.668;2023-07-28T14:27:33;2.05;;;1.30;;
19651;SDS011;9974;52.146;14.668;2023-07-28T14:29:59;1.38;;;1.05;;
19651;SDS011;9974;52.146;14.668;2023-07-28T14:32:25;2.15;;;0.88;;
19651;SDS011;9974;52.146;14.668;2023-07-28T14:34:51;2.75;;;1.00;;
19651;SDS011;9974;52.146;14.668;2023-07-28T14:37:18;1.13;;;1.00;;
19651;SDS011;9974;52.146;14.668;2023-07-28T14:39:43;1.83;;;1.20;;
19651;SDS011;9974;52.146;14.668;2023-07-28T14:42:09;1.42;;;1.15;;
19651;SDS011;9974;52.146;14.668;2023-07-28T14:44:35;3.00;;;1.00;;
19651;SDS011;9974;52.146;14.668;2023-07-28T14:47:01;1.92;;;1.20;;
19651;SDS011;9974;52.146;14.668;2023-07-28T14:49:27;2.10;;;1.20;;
19651;SDS011;9974;52.146;14.668;2023-07-28T14:51:54;2.55;;;1.27;;
19651;SDS011;9974;52.146;14.668;2023-07-28T14:54:20;2.30;;;1.40;;
19651;SDS011;9974;52.146;14.668;2023-07-28T14:56:45;1.90;;;1.10;;
19651;SDS011;9974;52.146;14.668;2023-07-28T14:59:11;5.32;;;1.38;;
19651;SDS011;9974;52.146;14.668;2023-07-28T15:01:37;1.73;;;1.30;;